Data for 04/01/2016

Time Sea-Level Adjusted Pressure Absolute Pressure Temperature Relative Humidity Dew Point   
(mb) (inHg) (mb) (inHg) (C) (F) (%) (C) (F)
00:05 1023 30.21 852 25.16 1.8 35.2 71 -2.9 26.9
00:10 1023 30.21 852 25.16 1.4 34.4 73 -2.9 26.7
00:15 1023 30.21 852 25.16 1.2 34.2 74 -3 26.7
00:20 1023 30.21 852 25.16 1.4 34.4 71 -3.3 26.1
00:25 1023 30.21 852 25.16 1.6 34.8 71 -3.1 26.4
00:30 1023 30.21 852 25.16 1.7 35 70 -3.2 26.2
00:35 1023 30.21 852 25.16 1.7 35.1 70 -3.1 26.3
00:40 1023 30.21 852 25.16 1.8 35.2 69 -3.3 26.1
00:45 1023 30.21 852 25.16 1.8 35.3 69 -3.2 26.2
00:50 1023 30.21 852 25.16 1.9 35.4 68 -3.3 26
00:55 1023 30.21 852 25.16 1.9 35.4 68 -3.3 26
01:00 1023 30.21 852 25.16 1.9 35.4 69 -3.2 26.2
01:05 1023 30.21 852 25.16 1.9 35.4 68 -3.4 26
01:10 1023 30.21 852 25.16 2 35.5 68 -3.3 26
01:15 1023 30.21 852 25.16 2 35.6 68 -3.2 26.2
01:20 1023 30.21 852 25.16 2 35.5 69 -3.2 26.3
01:25 1023 30.21 852 25.16 1.9 35.5 71 -2.9 26.9
01:30 1023 30.21 852 25.16 1.7 35.1 73 -2.6 27.3
01:35 1023 30.21 852 25.16 1.4 34.5 74 -2.7 27.1
01:40 1023 30.21 852 25.16 1.2 34.2 75 -2.8 27
01:45 1023 30.21 852 25.16 1.2 34.1 74 -2.9 26.8
01:50 1023 30.21 852 25.16 1.3 34.3 73 -3.1 26.4
01:55 1023 30.21 852 25.16 1.5 34.7 71 -3.1 26.4
02:00 1023 30.21 852 25.16 1.6 34.8 74 -2.6 27.2
02:05 1023 30.21 852 25.16 1.2 34.2 75 -2.6 27.3
02:10 1023 30.21 852 25.16 1 33.8 76 -2.7 27.1
02:15 1023 30.21 852 25.16 1.1 34 74 -3 26.5
02:20 1023 30.21 852 25.16 1.4 34.5 74 -2.8 26.9
02:25 1023 30.21 852 25.16 1.5 34.6 74 -2.7 27.2
02:30 1023 30.21 852 25.16 1.4 34.5 74 -2.7 27.2
02:35 1023 30.21 852 25.16 1.4 34.5 74 -2.7 27.2
02:40 1023 30.21 852 25.16 1.5 34.7 74 -2.7 27.2
02:45 1023 30.21 852 25.16 1.6 34.8 74 -2.5 27.4
02:50 1023 30.21 852 25.16 1.5 34.8 75 -2.4 27.7
02:55 1023 30.21 852 25.16 1.3 34.4 77 -2.3 27.8
03:00 1023 30.21 852 25.16 1.1 34 77 -2.5 27.5
03:05 1023 30.21 852 25.16 1.1 34 77 -2.5 27.4
03:10 1023 30.21 852 25.16 1.1 34 77 -2.5 27.5
03:15 1023 30.21 852 25.16 1.2 34.1 77 -2.5 27.6
03:20 1023 30.21 852 25.16 1.2 34.1 77 -2.4 27.6
03:25 1023 30.21 852 25.16 1.2 34.1 77 -2.4 27.7
03:30 1022 30.18 852 25.16 1.1 34 77 -2.4 27.6
03:35 1022 30.18 852 25.16 1.1 34 77 -2.5 27.6
03:40 1022 30.18 852 25.16 1.2 34.1 77 -2.4 27.6
03:45 1022 30.18 852 25.16 1 33.9 78 -2.5 27.6
03:50 1023 30.21 852 25.16 1 33.7 77 -2.5 27.4
03:55 1022 30.18 852 25.16 0.9 33.6 78 -2.6 27.4
04:00 1022 30.18 852 25.16 0.8 33.4 78 -2.7 27.2
04:05 1023 30.21 852 25.16 0.8 33.4 76 -3 26.6
04:10 1023 30.21 852 25.16 0.8 33.5 77 -2.8 27
04:15 1023 30.21 852 25.16 0.8 33.4 77 -2.8 26.9
04:20 1023 30.21 852 25.16 0.9 33.7 73 -3.4 25.8
04:25 1023 30.21 852 25.16 1.2 34.2 73 -3.2 26.3
04:30 1023 30.21 852 25.16 1.2 34.2 73 -3.2 26.3
04:35 1023 30.21 852 25.16 1.2 34.1 74 -2.9 26.8
04:40 1023 30.21 852 25.16 0.9 33.7 76 -2.8 27
04:45 1023 30.21 852 25.16 0.7 33.3 76 -3 26.7
04:50 1023 30.21 852 25.16 0.7 33.2 74 -3.4 25.9
04:55 1023 30.21 852 25.16 0.9 33.5 75 -3.1 26.4
05:00 1023 30.21 852 25.16 0.8 33.4 76 -3 26.5
05:05 1023 30.21 852 25.16 0.7 33.2 76 -3.1 26.4
05:10 1023 30.21 852 25.16 0.7 33.3 75 -3.3 26.1
05:15 1023 30.21 852 25.16 0.9 33.6 73 -3.3 26
05:20 1023 30.21 852 25.16 1 33.8 73 -3.4 26
05:25 1023 30.21 852 25.16 1.1 33.9 73 -3.3 26.1
05:30 1023 30.21 852 25.16 1 33.8 74 -3.2 26.3
05:35 1023 30.21 852 25.16 0.9 33.7 74 -3.2 26.3
05:40 1023 30.21 852 25.16 0.9 33.7 73 -3.3 26.1
05:45 1023 30.21 852 25.16 1 33.8 74 -3.1 26.4
05:50 1023 30.21 852 25.16 1 33.9 74 -3.1 26.4
05:55 1023 30.21 852 25.16 1 33.9 73 -3.3 26.1
06:00 1023 30.21 852 25.16 1.2 34.1 72 -3.4 25.9
06:05 1023 30.21 852 25.16 1.3 34.4 72 -3.2 26.3
06:10 1023 30.21 852 25.16 1.3 34.3 73 -3 26.6
06:15 1023 30.21 852 25.16 1.1 34.1 72 -3.3 26
06:20 1023 30.21 852 25.16 1.2 34.1 73 -3.1 26.4
06:25 1023 30.21 852 25.16 1.2 34.2 71 -3.4 25.9
06:30 1023 30.21 852 25.16 1.3 34.4 70 -3.6 25.5
06:35 1023 30.21 852 25.16 1.4 34.5 70 -3.5 25.6
06:40 1023 30.21 852 25.16 1.4 34.5 70 -3.6 25.6
06:45 1023 30.21 852 25.16 1.4 34.6 69 -3.6 25.5
06:50 1023 30.21 853 25.19 1.4 34.6 71 -3.3 26.1
06:55 1023 30.21 853 25.19 1.3 34.4 73 -3 26.6
07:00 1024 30.24 853 25.19 1.2 34.2 72 -3.2 26.2
07:05 1024 30.24 853 25.19 1.3 34.3 75 -2.7 27.1
07:10 1024 30.24 853 25.19 1.2 34.2 74 -2.8 26.9
07:15 1024 30.24 853 25.19 1.3 34.3 75 -2.7 27.2
07:20 1024 30.24 853 25.19 1.3 34.3 74 -2.9 26.8
07:25 1024 30.24 853 25.19 1.4 34.5 74 -2.7 27.2
07:30 1024 30.24 853 25.19 1.5 34.7 74 -2.7 27.2
07:35 1024 30.24 853 25.19 1.6 34.9 74 -2.5 27.4
07:40 1024 30.24 853 25.19 1.7 35 73 -2.6 27.3
07:45 1024 30.24 853 25.19 1.7 35 71 -3 26.6
07:50 1024 30.24 853 25.19 1.8 35.2 70 -3.2 26.3
07:55 1024 30.24 853 25.19 2 35.6 70 -2.9 26.8
08:00 1024 30.24 853 25.19 2.3 36.1 68 -2.9 26.8
08:05 1024 30.24 853 25.19 2.6 36.7 67 -3 26.7
08:10 1024 30.24 853 25.19 2.9 37.1 68 -2.5 27.5
08:15 1024 30.24 853 25.19 2.9 37.2 66 -2.8 26.9
08:20 1024 30.24 853 25.19 2.9 37.3 64 -3.2 26.3
08:25 1024 30.24 853 25.19 3 37.4 65 -2.9 26.7
08:30 1024 30.24 853 25.19 3 37.4 65 -3 26.6
08:35 1024 30.24 853 25.19 3.1 37.5 64 -3 26.5
08:40 1024 30.24 853 25.19 3.2 37.8 64 -3 26.7
08:45 1024 30.24 853 25.19 3.4 38.2 63 -3 26.5
08:50 1024 30.24 853 25.19 3.5 38.4 63 -2.9 26.8
08:55 1024 30.24 853 25.19 3.7 38.7 62 -2.8 27
09:00 1024 30.24 853 25.19 3.9 39 62 -2.8 27
09:05 1024 30.24 853 25.19 3.9 39.1 61 -2.9 26.8
09:10 1024 30.24 853 25.19 4 39.1 62 -2.7 27.1
09:15 1024 30.24 853 25.19 3.9 39 61 -2.8 26.9
09:20 1024 30.24 853 25.19 3.9 39.1 60 -3.1 26.5
09:25 1024 30.24 853 25.19 4.3 39.7 58 -3.1 26.4
09:30 1024 30.24 853 25.19 4.7 40.4 57 -3.1 26.3
09:35 1024 30.24 853 25.19 4.8 40.7 56 -3.2 26.3
09:40 1024 30.24 853 25.19 4.6 40.3 57 -3.2 26.2
09:45 1024 30.24 853 25.19 5 40.9 55 -3.2 26.2
09:50 1024 30.24 853 25.19 5.3 41.6 53 -3.6 25.6
09:55 1024 30.24 853 25.19 5.8 42.4 51 -3.6 25.6
10:00 1024 30.24 853 25.19 6.1 43 49 -3.7 25.3
10:05 1024 30.24 853 25.19 6.8 44.2 45 -4.2 24.4
10:10 1024 30.24 853 25.19 7.6 45.6 44 -3.9 24.9
10:15 1024 30.24 853 25.19 8.6 47.4 40 -4.4 24.2
10:20 1024 30.24 853 25.19 8.3 47 40 -4.6 23.8
10:25 1024 30.24 853 25.19 9.2 48.6 37 -4.8 23.4
10:30 1024 30.24 853 25.19 9.9 49.9 34 -5.3 22.4
10:35 1024 30.24 853 25.19 9.5 49 38 -4.2 24.5
10:40 1024 30.24 853 25.19 9.1 48.4 39 -4.1 24.7
10:45 1024 30.24 853 25.19 9.2 48.5 39 -4 24.8
10:50 1024 30.24 853 25.19 9 48.1 39 -4.2 24.4
10:55 1024 30.24 853 25.19 9.2 48.6 38 -4.5 23.9
11:00 1024 30.24 853 25.19 9.6 49.3 36 -4.6 23.8
11:05 1024 30.24 853 25.19 9.5 49 38 -4.2 24.5
11:10 1024 30.24 853 25.19 9.5 49.1 37 -4.4 24.1
11:15 1024 30.24 853 25.19 10 49.9 35 -4.7 23.5
11:20 1024 30.24 853 25.19 10.2 50.3 34 -5 23.1
11:25 1024 30.24 853 25.19 10.4 50.7 34 -4.7 23.5
11:30 1024 30.24 853 25.19 10.4 50.7 34 -4.7 23.6
11:35 1024 30.24 853 25.19 10.4 50.8 33 -5 23
11:40 1024 30.24 853 25.19 10.7 51.2 33 -4.7 23.5
11:45 1024 30.24 853 25.19 10.7 51.3 34 -4.4 24.1
11:50 1024 30.24 853 25.19 11 51.8 34 -4.3 24.3
11:55 1024 30.24 853 25.19 11 51.9 33 -4.5 23.8
12:00 1024 30.24 853 25.19 11.4 52.5 33 -4.4 24
12:05 1024 30.24 853 25.19 10.7 51.3 34 -4.3 24.2
12:10 1024 30.24 853 25.19 10.8 51.4 36 -3.8 25.2
12:15 1024 30.24 853 25.19 11 51.9 34 -4.1 24.5
12:20 1024 30.24 853 25.19 11.1 52 34 -3.9 24.9
12:25 1024 30.24 853 25.19 11.7 53 33 -4.2 24.4
12:30 1023 30.21 853 25.19 11.9 53.4 33 -3.8 25.2
12:35 1024 30.24 853 25.19 11.8 53.3 33 -4.1 24.7
12:40 1023 30.21 853 25.19 12.5 54.5 32 -3.9 25
12:45 1023 30.21 853 25.19 12.2 54 33 -3.5 25.8
12:50 1023 30.21 853 25.19 11.6 52.9 34 -3.7 25.4
12:55 1023 30.21 853 25.19 11.7 53.1 33 -4.1 24.6
13:00 1023 30.21 853 25.19 11.7 53 34 -3.7 25.3
13:05 1023 30.21 853 25.19 11.7 53.1 34 -3.6 25.5
13:10 1023 30.21 853 25.19 12.2 54 33 -3.5 25.7
13:15 1023 30.21 853 25.19 11.6 52.8 36 -3.1 26.5
13:20 1023 30.21 853 25.19 11.7 53.1 34 -3.7 25.3
13:25 1023 30.21 853 25.19 12.3 54.1 32 -3.8 25.1
13:30 1023 30.21 853 25.19 12.5 54.5 34 -3.1 26.5
13:35 1023 30.21 852 25.16 12.5 54.5 34 -2.8 27
13:40 1023 30.21 852 25.16 11.7 53 34 -3.5 25.6
13:45 1023 30.21 852 25.16 11.3 52.3 35 -3.4 25.9
13:50 1023 30.21 852 25.16 11.6 52.9 36 -2.8 26.9
13:55 1023 30.21 852 25.16 11.1 52 37 -2.9 26.7
14:00 1023 30.21 852 25.16 11.3 52.3 36 -3.1 26.5
14:05 1023 30.21 852 25.16 12 53.6 34 -3.4 25.8
14:10 1023 30.21 852 25.16 12 53.6 34 -3.3 26
14:15 1023 30.21 852 25.16 12.6 54.7 33 -3.4 25.9
14:20 1023 30.21 852 25.16 13.3 55.9 32 -3.1 26.3
14:25 1023 30.21 852 25.16 13.5 56.4 31 -3 26.6
14:30 1023 30.21 852 25.16 14 57.1 30 -3.2 26.3
14:35 1023 30.21 852 25.16 14.7 58.4 28 -3.7 25.4
14:40 1023 30.21 852 25.16 15.3 59.6 28 -3 26.6
14:45 1023 30.21 852 25.16 14.6 58.4 29 -3.1 26.4
14:50 1023 30.21 852 25.16 14.3 57.7 29 -3.3 26.1
14:55 1023 30.21 852 25.16 13.5 56.2 31 -3.3 26.1
15:00 1023 30.21 852 25.16 14 57.2 28 -4 24.9
15:05 1022 30.18 852 25.16 14.3 57.8 29 -3.5 25.7
15:10 1022 30.18 852 25.16 13.4 56.1 29 -4.1 24.7
15:15 1022 30.18 852 25.16 14.4 57.9 30 -3.1 26.5
15:20 1022 30.18 852 25.16 13.7 56.6 31 -3.2 26.2
15:25 1022 30.18 852 25.16 13.1 55.6 31 -3.4 25.9
15:30 1022 30.18 852 25.16 13.1 55.7 31 -3.4 25.9
15:35 1022 30.18 852 25.16 13.5 56.4 30 -3.5 25.7
15:40 1022 30.18 852 25.16 13.3 56 29 -4.2 24.4
15:45 1022 30.18 852 25.16 13.9 57 29 -3.8 25.2
15:50 1022 30.18 852 25.16 14.1 57.4 28 -3.9 25
15:55 1022 30.18 851 25.13 13.5 56.3 30 -3.9 25
16:00 1022 30.18 851 25.13 13.8 56.9 29 -4 24.9
16:05 1022 30.18 851 25.13 13.7 56.6 30 -3.4 25.9
16:10 1022 30.18 851 25.13 13.3 55.9 30 -4 24.8
16:15 1022 30.18 851 25.13 13.5 56.3 30 -3.6 25.5
16:20 1022 30.18 851 25.13 13.3 55.9 31 -3.6 25.5
16:25 1022 30.18 851 25.13 13.5 56.3 31 -3.4 25.8
16:30 1022 30.18 851 25.13 13.3 55.9 31 -3.4 25.9
16:35 1022 30.18 851 25.13 13.5 56.2 30 -3.8 25.2
16:40 1022 30.18 851 25.13 13.4 56.1 31 -3.2 26.2
16:45 1022 30.18 851 25.13 12.9 55.2 32 -3.4 26
16:50 1022 30.18 851 25.13 12.9 55.2 31 -3.9 24.9
16:55 1022 30.18 851 25.13 12.9 55.2 31 -3.7 25.4
17:00 1022 30.18 851 25.13 13 55.5 31 -3.9 25.1
17:05 1022 30.18 851 25.13 12.9 55.1 30 -4 24.7
17:10 1022 30.18 851 25.13 12.7 54.9 31 -4 24.8
17:15 1022 30.18 851 25.13 13.1 55.6 30 -4.2 24.5
17:20 1022 30.18 851 25.13 12.9 55.2 30 -4.1 24.6
17:25 1022 30.18 851 25.13 12.9 55.2 31 -3.9 25
17:30 1022 30.18 851 25.13 12.8 55 30 -4.1 24.6
17:35 1022 30.18 851 25.13 12.8 55 31 -3.8 25.2
17:40 1022 30.18 851 25.13 12.7 54.8 31 -3.8 25.2
17:45 1022 30.18 851 25.13 12.8 55 31 -3.7 25.3
17:50 1022 30.18 851 25.13 12.8 55.1 31 -3.6 25.5
17:55 1022 30.18 851 25.13 12.9 55.1 32 -3.6 25.6
18:00 1022 30.18 851 25.13 12.9 55.2 31 -3.9 25
18:05 1022 30.18 851 25.13 12.7 54.8 31 -3.8 25.1
18:10 1022 30.18 851 25.13 12.7 54.9 32 -3.5 25.7
18:15 1022 30.18 851 25.13 12.7 54.8 33 -3.2 26.3
18:20 1022 30.18 851 25.13 12.6 54.6 33 -3.3 26
18:25 1022 30.18 851 25.13 12.5 54.4 33 -3.4 25.8
18:30 1022 30.18 851 25.13 12.3 54.2 32 -3.6 25.4
18:35 1022 30.18 851 25.13 12.2 54 35 -2.8 26.9
18:40 1022 30.18 851 25.13 11.7 53.1 39 -1.7 28.9
18:45 1022 30.18 851 25.13 11.2 52.1 42 -1.3 29.7
18:50 1022 30.18 851 25.13 10.8 51.4 43 -1.2 29.8
18:55 1022 30.18 851 25.13 10.5 50.9 44 -1.3 29.6
19:00 1022 30.18 851 25.13 10.5 50.8 43 -1.5 29.3
19:05 1022 30.18 851 25.13 10.5 51 44 -1.1 30
19:10 1022 30.18 851 25.13 10.4 50.7 46 -0.7 30.7
19:15 1022 30.18 851 25.13 10.1 50.1 47 -0.8 30.6
19:20 1022 30.18 851 25.13 9.8 49.6 46 -1.2 29.9
19:25 1022 30.18 851 25.13 9.6 49.2 47 -1.1 30
19:30 1022 30.18 851 25.13 9.5 49.1 47 -1.1 30
19:35 1022 30.18 851 25.13 9.3 48.8 48 -1.1 30
19:40 1022 30.18 851 25.13 9.2 48.5 49 -1.1 30.1
19:45 1022 30.18 851 25.13 9.1 48.3 49 -1.1 30.1
19:50 1022 30.18 851 25.13 8.8 47.8 50 -0.9 30.4
19:55 1022 30.18 851 25.13 8.5 47.3 51 -0.9 30.4
20:00 1022 30.18 852 25.16 8.2 46.8 54 -0.5 31.1
20:05 1022 30.18 852 25.16 7.9 46.3 55 -0.5 31.1
20:10 1022 30.18 852 25.16 7.7 45.9 56 -0.6 30.9
20:15 1022 30.18 852 25.16 7.5 45.4 56 -0.8 30.5
20:20 1022 30.18 852 25.16 7.5 45.5 53 -1.5 29.3
20:25 1023 30.21 852 25.16 7.7 45.9 51 -1.7 29
20:30 1023 30.21 852 25.16 7.8 46 51 -1.8 28.7
20:35 1023 30.21 852 25.16 7.8 46.1 49 -2.2 28.1
20:40 1023 30.21 852 25.16 7.9 46.2 50 -1.9 28.5
20:45 1023 30.21 852 25.16 7.7 45.9 50 -2.1 28.2
20:50 1023 30.21 852 25.16 7.7 45.8 49 -2.2 28
20:55 1023 30.21 852 25.16 7.7 45.8 49 -2.3 27.9
21:00 1023 30.21 852 25.16 7.7 45.8 49 -2.2 28
21:05 1023 30.21 852 25.16 7.5 45.6 50 -2.1 28.2
21:10 1023 30.21 852 25.16 7.4 45.4 50 -2.3 27.9
21:15 1023 30.21 852 25.16 7.4 45.3 50 -2.4 27.7
21:20 1023 30.21 852 25.16 7.3 45.1 51 -2 28.3
21:25 1023 30.21 852 25.16 7.1 44.8 52 -2.2 28.1
21:30 1023 30.21 852 25.16 7.3 45.1 50 -2.3 27.8
21:35 1023 30.21 852 25.16 7.3 45.2 51 -2 28.3
21:40 1023 30.21 852 25.16 7.3 45.1 52 -2 28.4
21:45 1023 30.21 852 25.16 7 44.6 53 -1.8 28.8
21:50 1023 30.21 852 25.16 6.7 44.1 54 -1.9 28.6
21:55 1023 30.21 852 25.16 6.7 44.1 54 -1.8 28.7
22:00 1023 30.21 852 25.16 6.7 44.1 53 -2.1 28.2
22:05 1023 30.21 852 25.16 6.8 44.3 53 -2 28.5
22:10 1023 30.21 852 25.16 6.8 44.2 54 -2 28.4
22:15 1023 30.21 852 25.16 6.7 44.1 54 -1.9 28.6
22:20 1023 30.21 852 25.16 6.5 43.7 55 -1.8 28.7
22:25 1023 30.21 852 25.16 6.2 43.2 56 -1.9 28.6
22:30 1023 30.21 852 25.16 6 42.9 55 -2.2 28
22:35 1023 30.21 852 25.16 6.5 43.7 54 -2.1 28.2
22:40 1023 30.21 852 25.16 6.6 43.8 55 -1.9 28.5
22:45 1023 30.21 852 25.16 6.7 44 54 -1.9 28.5
22:50 1023 30.21 852 25.16 6.6 43.9 55 -1.9 28.6
22:55 1023 30.21 852 25.16 6.6 43.9 54 -1.9 28.6
23:00 1023 30.21 852 25.16 6.6 43.9 55 -1.8 28.8
23:05 1023 30.21 852 25.16 6.4 43.6 56 -1.8 28.8
23:10 1023 30.21 852 25.16 6.2 43.1 57 -1.7 28.9
23:15 1023 30.21 852 25.16 6 42.8 57 -1.8 28.8
23:20 1023 30.21 852 25.16 5.7 42.3 59 -1.7 28.9
23:25 1023 30.21 852 25.16 5.4 41.8 59 -1.9 28.6
23:30 1023 30.21 852 25.16 5.6 42.1 58 -1.9 28.5
23:35 1023 30.21 852 25.16 5.5 41.8 59 -1.8 28.7
23:40 1023 30.21 852 25.16 5.1 41.2 62 -1.6 29.1
23:45 1023 30.21 852 25.16 5.1 41.2 61 -1.9 28.7
23:50 1023 30.21 852 25.16 5.3 41.5 60 -1.9 28.5
23:55 1023 30.21 852 25.16 5.2 41.4 59 -2.1 28.2
24:00 1023 30.21 852 25.16 5.2 41.3 59 -2.3 27.9